createdAt,value
2022-11-08T00:01:35.316Z,91.50
2022-11-08T00:04:12.883Z,91.50
2022-11-08T00:06:58.694Z,91.50
2022-11-08T00:09:44.054Z,91.50
2022-11-08T00:12:29.328Z,91.40
2022-11-08T00:14:56.080Z,91.40
2022-11-08T00:17:24.498Z,91.40
2022-11-08T00:19:51.176Z,91.50
2022-11-08T00:22:18.721Z,91.40
2022-11-08T00:24:45.975Z,91.40
2022-11-08T00:27:21.316Z,91.40
2022-11-08T00:29:48.288Z,91.40
2022-11-08T00:32:18.316Z,91.40
2022-11-08T00:34:45.238Z,91.40
2022-11-08T00:37:12.126Z,91.40
2022-11-08T00:39:38.752Z,91.40
2022-11-08T00:42:05.427Z,91.40
2022-11-08T00:44:32.069Z,91.40
2022-11-08T00:46:58.688Z,91.40
2022-11-08T00:49:25.489Z,91.40
2022-11-08T00:51:52.853Z,91.40
2022-11-08T00:54:21.105Z,91.40
2022-11-08T00:56:49.031Z,91.40
2022-11-08T00:59:18.039Z,91.40
2022-11-08T01:01:45.625Z,91.40
2022-11-08T01:04:18.243Z,91.40
2022-11-08T01:06:45.213Z,91.40
2022-11-08T01:09:12.300Z,91.40
2022-11-08T01:11:40.017Z,91.40
2022-11-08T01:14:06.575Z,91.40
2022-11-08T01:16:34.077Z,91.40
2022-11-08T01:19:01.362Z,91.60
2022-11-08T01:21:28.973Z,91.30
2022-11-08T01:23:55.873Z,91.30
2022-11-08T01:26:25.064Z,91.30
2022-11-08T01:28:52.459Z,91.60
2022-11-08T01:31:25.713Z,91.30
2022-11-08T01:33:52.382Z,91.30
2022-11-08T01:36:22.295Z,91.30
2022-11-08T01:38:48.896Z,91.30
2022-11-08T01:41:17.436Z,91.30
2022-11-08T01:43:46.339Z,91.30
2022-11-08T01:46:18.948Z,91.30
2022-11-08T01:48:45.463Z,91.30
2022-11-08T01:51:14.992Z,91.30
2022-11-08T01:53:41.951Z,91.30
2022-11-08T01:56:10.105Z,91.30
2022-11-08T01:58:39.317Z,91.30
2022-11-08T02:01:06.127Z,91.30
2022-11-08T02:03:34.396Z,91.30
2022-11-08T02:06:02.599Z,91.30
2022-11-08T02:08:37.631Z,91.30
2022-11-08T02:11:06.009Z,91.30
2022-11-08T02:13:34.732Z,91.30
2022-11-08T02:16:01.515Z,91.60
2022-11-08T02:18:31.197Z,91.30
2022-11-08T02:21:19.473Z,91.30
2022-11-08T02:23:57.084Z,91.30
2022-11-08T02:26:28.838Z,91.30
2022-11-08T02:28:55.614Z,91.30
2022-11-08T02:31:22.193Z,91.30
2022-11-08T02:33:49.612Z,91.30
2022-11-08T02:36:20.095Z,91.30
2022-11-08T02:38:51.533Z,91.30
2022-11-08T02:41:18.260Z,91.50
2022-11-08T02:43:44.823Z,91.30
2022-11-08T02:46:11.434Z,91.30
2022-11-08T02:48:38.053Z,91.30
2022-11-08T02:51:04.631Z,91.30
2022-11-08T02:53:31.300Z,91.30
2022-11-08T02:55:57.968Z,91.20
2022-11-08T02:58:24.701Z,91.20
2022-11-08T03:00:51.275Z,91.20
2022-11-08T03:03:17.889Z,91.20
2022-11-08T03:05:44.521Z,91.20
2022-11-08T03:08:11.073Z,91.20
2022-11-08T03:10:37.724Z,91.20
2022-11-08T03:13:05.375Z,91.20
2022-11-08T03:15:33.341Z,91.20
2022-11-08T03:18:02.093Z,91.20
2022-11-08T03:20:32.760Z,91.20
2022-11-08T03:23:01.718Z,91.20
2022-11-08T03:25:28.658Z,91.20
2022-11-08T03:27:55.336Z,91.20
2022-11-08T03:30:22.243Z,91.20
2022-11-08T03:32:49.887Z,91.20
2022-11-08T03:35:17.007Z,91.20
2022-11-08T03:37:50.862Z,91.20
2022-11-08T03:40:22.135Z,91.20
2022-11-08T03:42:48.808Z,91.20
2022-11-08T03:45:16.133Z,91.20
2022-11-08T03:47:44.742Z,91.20
2022-11-08T03:50:12.899Z,91.20
2022-11-08T03:52:51.076Z,91.20
2022-11-08T03:55:18.949Z,91.20
2022-11-08T03:57:47.105Z,91.20
2022-11-08T04:00:15.940Z,91.20
2022-11-08T04:02:42.670Z,91.20
2022-11-08T04:05:11.377Z,91.20
2022-11-08T04:07:38.693Z,91.20
2022-11-08T04:10:07.029Z,91.20
2022-11-08T04:12:52.243Z,91.20
2022-11-08T04:15:22.595Z,91.10
2022-11-08T04:18:10.678Z,91.10
2022-11-08T04:21:04.091Z,91.20
2022-11-08T04:23:32.465Z,91.10
2022-11-08T04:26:01.661Z,91.10
2022-11-08T04:28:30.845Z,91.10
2022-11-08T04:31:00.226Z,91.10
2022-11-08T04:33:26.879Z,91.10
2022-11-08T04:35:53.994Z,91.20
2022-11-08T04:38:21.368Z,91.10
2022-11-08T04:40:48.063Z,91.10
2022-11-08T04:43:14.685Z,91.10
2022-11-08T04:45:41.250Z,91.10
2022-11-08T04:48:07.969Z,91.10
2022-11-08T04:50:34.708Z,91.10
2022-11-08T04:53:01.421Z,91.10
2022-11-08T04:55:28.011Z,91.10
2022-11-08T04:57:57.863Z,91.40
2022-11-08T05:00:24.900Z,91.10
2022-11-08T05:02:51.538Z,91.10
2022-11-08T05:05:18.202Z,91.10
2022-11-08T05:07:44.763Z,91.10
2022-11-08T05:10:11.352Z,91.10
2022-11-08T05:12:37.911Z,91.10
2022-11-08T05:15:04.822Z,91.10
2022-11-08T05:17:31.377Z,91.10
2022-11-08T05:20:16.604Z,91.10
2022-11-08T05:23:02.002Z,91.10
2022-11-08T05:25:28.588Z,91.10
2022-11-08T05:27:58.082Z,91.10
2022-11-08T05:30:24.681Z,91.20
2022-11-08T05:32:52.706Z,91.20
2022-11-08T05:35:21.508Z,91.10
2022-11-08T05:37:48.252Z,91.10
2022-11-08T05:40:14.924Z,91.10
2022-11-08T05:42:41.518Z,91.10
2022-11-08T05:45:09.662Z,91.00
2022-11-08T05:47:36.855Z,91.10
2022-11-08T05:50:03.873Z,91.10
2022-11-08T05:52:30.863Z,91.20
2022-11-08T05:54:57.414Z,91.10
2022-11-08T05:57:24.022Z,91.10
2022-11-08T05:59:50.716Z,91.20
2022-11-08T06:02:18.127Z,91.20
2022-11-08T06:04:47.083Z,91.30
2022-11-08T06:07:13.660Z,91.30
2022-11-08T06:09:40.179Z,91.30
2022-11-08T06:12:07.068Z,91.30
2022-11-08T06:14:33.876Z,91.30
2022-11-08T06:17:00.512Z,91.20
2022-11-08T06:19:27.098Z,91.20
2022-11-08T06:21:53.680Z,91.20
2022-11-08T06:24:20.193Z,91.10
2022-11-08T06:26:46.722Z,91.20
2022-11-08T06:29:13.305Z,91.10
2022-11-08T06:31:43.029Z,91.10
2022-11-08T06:34:10.019Z,91.10
2022-11-08T06:36:36.726Z,91.10
2022-11-08T06:39:03.448Z,91.40
2022-11-08T06:41:30.381Z,91.10
2022-11-08T06:43:56.968Z,91.10
2022-11-08T06:46:23.508Z,91.10
2022-11-08T06:48:50.284Z,91.10
2022-11-08T06:51:17.390Z,91.10
2022-11-08T06:53:44.440Z,91.10
2022-11-08T06:56:11.283Z,91.10
2022-11-08T06:58:38.301Z,91.10
2022-11-08T07:01:07.288Z,91.40
2022-11-08T07:03:34.645Z,91.10
2022-11-08T07:08:26.871Z,91.10
2022-11-08T07:10:54.001Z,91.10
2022-11-08T07:13:21.038Z,91.10
2022-11-08T07:15:48.171Z,91.10
2022-11-08T07:18:17.517Z,91.30
2022-11-08T07:20:44.135Z,91.10
2022-11-08T07:23:12.107Z,91.10
2022-11-08T07:25:38.915Z,91.10
2022-11-08T07:28:07.861Z,91.10
2022-11-08T07:30:35.894Z,91.10
2022-11-08T07:33:03.248Z,91.10
2022-11-08T07:35:29.832Z,91.00
2022-11-08T07:37:56.747Z,91.00
2022-11-08T07:40:23.894Z,91.00
2022-11-08T07:43:10.806Z,91.10
2022-11-08T07:45:37.226Z,91.00
2022-11-08T07:48:11.066Z,91.00
2022-11-08T07:50:39.428Z,91.00
2022-11-08T07:53:06.060Z,90.90
2022-11-08T07:55:35.114Z,90.70
2022-11-08T07:58:02.054Z,91.00
2022-11-08T08:00:33.236Z,91.00
2022-11-08T08:03:01.139Z,91.00
2022-11-08T08:05:29.449Z,90.90
2022-11-08T08:08:00.358Z,90.90
2022-11-08T08:10:27.927Z,90.90
2022-11-08T08:12:55.642Z,90.80
2022-11-08T08:15:22.534Z,90.80
2022-11-08T08:17:49.136Z,90.90
2022-11-08T08:20:16.212Z,90.90
2022-11-08T08:22:46.747Z,91.10
2022-11-08T08:25:13.733Z,91.20
2022-11-08T08:27:40.595Z,91.20
2022-11-08T08:30:08.059Z,91.10
2022-11-08T08:32:34.633Z,91.10
2022-11-08T08:35:01.165Z,91.20
2022-11-08T08:37:28.268Z,91.30
2022-11-08T08:39:54.856Z,91.20
2022-11-08T08:42:21.378Z,90.80
2022-11-08T08:44:48.014Z,86.90
2022-11-08T08:47:14.622Z,86.50
2022-11-08T08:49:41.251Z,88.00
2022-11-08T08:52:07.819Z,88.10
2022-11-08T08:54:34.327Z,88.10
2022-11-08T08:57:00.903Z,88.30
2022-11-08T09:02:15.785Z,88.60
2022-11-08T09:04:42.367Z,88.70
2022-11-08T09:07:09.070Z,88.90
2022-11-08T09:09:36.291Z,88.90
2022-11-08T09:12:03.330Z,88.90
2022-11-08T09:14:29.905Z,89.00
2022-11-08T09:16:56.861Z,89.00
2022-11-08T09:19:23.603Z,89.10
2022-11-08T09:21:50.528Z,89.20
2022-11-08T09:24:17.252Z,89.20
2022-11-08T09:26:43.921Z,89.20
2022-11-08T09:29:10.517Z,89.30
2022-11-08T09:31:39.906Z,89.40
2022-11-08T09:34:06.616Z,89.40
2022-11-08T09:36:33.143Z,89.40
2022-11-08T09:38:59.879Z,89.30
2022-11-08T09:41:32.456Z,89.50
2022-11-08T09:44:42.828Z,89.50
2022-11-08T09:47:22.836Z,89.50
2022-11-08T09:50:05.684Z,89.50
2022-11-08T09:52:34.527Z,89.40
2022-11-08T09:55:26.691Z,89.40
2022-11-08T09:57:59.310Z,89.40
2022-11-08T10:00:26.049Z,89.40
2022-11-08T10:02:52.639Z,89.50
2022-11-08T10:05:20.580Z,89.40
2022-11-08T10:07:58.016Z,89.40
2022-11-08T10:10:55.077Z,89.40
2022-11-08T10:13:27.231Z,89.40
2022-11-08T10:16:22.864Z,89.40
2022-11-08T10:19:40.455Z,89.30
2022-11-08T10:22:23.057Z,89.30
2022-11-08T10:24:59.325Z,89.30
2022-11-08T10:27:39.178Z,89.30
2022-11-08T10:30:30.068Z,89.20
2022-11-08T10:32:57.731Z,89.20
2022-11-08T10:35:38.019Z,89.20
2022-11-08T10:38:17.825Z,89.20
2022-11-08T10:41:04.444Z,89.10
2022-11-08T10:44:04.495Z,89.00
2022-11-08T10:46:48.864Z,89.00
2022-11-08T10:49:17.309Z,89.00
2022-11-08T10:51:45.712Z,89.60
2022-11-08T10:54:48.048Z,89.00
2022-11-08T10:57:25.396Z,88.90
2022-11-08T10:59:52.927Z,88.90
2022-11-08T11:02:29.283Z,89.00
2022-11-08T11:05:16.453Z,88.90
2022-11-08T11:07:47.169Z,88.90
2022-11-08T11:10:27.553Z,88.90
2022-11-08T11:13:03.439Z,89.00
2022-11-08T11:15:46.463Z,88.90
2022-11-08T11:18:34.995Z,88.90
2022-11-08T11:21:15.633Z,88.90
2022-11-08T11:23:49.293Z,88.80
2022-11-08T11:26:34.284Z,88.80
2022-11-08T11:29:06.870Z,85.20
2022-11-08T11:31:41.592Z,83.50
2022-11-08T11:34:17.207Z,84.50
2022-11-08T11:36:55.366Z,84.10
2022-11-08T11:40:00.852Z,84.00
2022-11-08T11:42:49.629Z,82.70
2022-11-08T11:45:37.839Z,82.70
2022-11-08T11:48:32.297Z,80.40
2022-11-08T11:50:59.330Z,81.10
2022-11-08T11:53:38.725Z,82.10
2022-11-08T11:56:08.687Z,80.60
2022-11-08T11:58:37.956Z,81.00
2022-11-08T12:01:32.074Z,80.10
2022-11-08T12:04:16.421Z,80.40
2022-11-08T12:06:55.235Z,81.70
2022-11-08T12:09:47.496Z,81.90
2022-11-08T12:12:22.993Z,82.60
2022-11-08T12:15:26.684Z,83.00
2022-11-08T12:18:07.539Z,83.60
2022-11-08T12:20:53.974Z,84.20
2022-11-08T12:23:29.500Z,84.50
2022-11-08T12:26:03.819Z,84.90
2022-11-08T12:28:45.835Z,85.20
2022-11-08T12:31:35.304Z,85.50
2022-11-08T12:34:17.349Z,85.70
2022-11-08T12:36:55.623Z,85.90
2022-11-08T12:39:45.110Z,86.10
2022-11-08T12:42:30.620Z,86.30
2022-11-08T12:45:09.126Z,86.40
2022-11-08T12:47:58.177Z,86.70
2022-11-08T12:50:51.124Z,86.80
2022-11-08T12:53:42.147Z,86.90
2022-11-08T12:56:17.422Z,87.10
2022-11-08T12:58:52.500Z,87.20
2022-11-08T13:01:21.362Z,87.30
2022-11-08T13:04:06.208Z,87.40
2022-11-08T13:06:38.778Z,87.50
2022-11-08T13:09:15.112Z,87.60
2022-11-08T13:11:47.523Z,87.80
2022-11-08T13:14:18.758Z,87.90
2022-11-08T13:17:06.129Z,87.70
2022-11-08T13:19:47.889Z,87.60
2022-11-08T13:22:29.466Z,87.60
2022-11-08T13:24:58.193Z,87.60
2022-11-08T13:27:43.560Z,87.70
2022-11-08T13:30:16.161Z,87.70
2022-11-08T13:32:42.647Z,87.80
2022-11-08T13:35:21.439Z,87.80
2022-11-08T13:38:23.000Z,87.80
2022-11-08T13:41:13.190Z,87.80
2022-11-08T13:43:39.852Z,87.90
2022-11-08T13:46:27.846Z,88.00
2022-11-08T13:49:04.994Z,88.00
2022-11-08T13:51:33.594Z,88.10
2022-11-08T13:54:26.091Z,88.10
2022-11-08T13:56:58.157Z,88.10
2022-11-08T13:59:30.988Z,88.10
2022-11-08T14:01:57.600Z,88.00
2022-11-08T14:04:38.545Z,88.10
2022-11-08T14:07:11.101Z,88.10
2022-11-08T14:09:49.100Z,88.10
2022-11-08T14:12:35.806Z,88.10
2022-11-08T14:15:14.478Z,88.20
2022-11-08T14:18:19.656Z,88.10
2022-11-08T14:20:47.139Z,88.20
2022-11-08T14:23:19.714Z,88.20
2022-11-08T14:25:57.600Z,88.20
2022-11-08T14:28:36.461Z,88.30
2022-11-08T14:31:06.617Z,88.90
2022-11-08T14:33:40.419Z,88.30
2022-11-08T14:36:13.309Z,88.30
2022-11-08T14:38:50.560Z,88.30
2022-11-08T14:41:25.268Z,88.30
2022-11-08T14:43:53.762Z,88.40
2022-11-08T14:46:30.955Z,88.30
2022-11-08T14:48:58.063Z,88.40
2022-11-08T14:51:25.955Z,88.40
2022-11-08T14:53:54.659Z,88.40
2022-11-08T14:56:24.521Z,88.40
2022-11-08T14:58:52.915Z,88.50
2022-11-08T15:01:25.552Z,88.50
2022-11-08T15:04:31.428Z,88.50
2022-11-08T15:06:59.466Z,88.60
2022-11-08T15:09:41.234Z,88.60
2022-11-08T15:12:20.445Z,88.60
2022-11-08T15:15:18.117Z,88.70
2022-11-08T15:17:45.317Z,88.70
2022-11-08T15:20:12.952Z,88.70
2022-11-08T15:22:40.245Z,88.80
2022-11-08T15:25:34.804Z,88.80
2022-11-08T15:28:22.388Z,88.80
2022-11-08T15:30:56.072Z,88.80
2022-11-08T15:33:37.562Z,88.80
2022-11-08T15:36:12.720Z,88.90
2022-11-08T15:38:47.326Z,89.00
2022-11-08T15:41:53.149Z,89.20
2022-11-08T15:44:23.854Z,89.50
2022-11-08T15:46:51.945Z,89.60
2022-11-08T15:49:24.440Z,89.60
2022-11-08T15:51:53.744Z,89.40
2022-11-08T15:54:22.278Z,88.80
2022-11-08T15:56:50.937Z,89.20
2022-11-08T15:59:21.501Z,89.30
2022-11-08T16:01:56.010Z,88.50
2022-11-08T16:04:23.288Z,88.70
2022-11-08T16:06:50.179Z,88.70
2022-11-08T16:09:16.855Z,88.90
2022-11-08T16:11:45.390Z,89.00
2022-11-08T16:14:21.746Z,89.00
2022-11-08T16:16:48.386Z,89.10
2022-11-08T16:19:18.959Z,89.10
2022-11-08T16:21:45.581Z,89.40
2022-11-08T16:24:12.259Z,89.40
2022-11-08T16:26:40.427Z,88.30
2022-11-08T16:29:13.335Z,89.00
2022-11-08T16:31:39.887Z,89.00
2022-11-08T16:34:08.825Z,88.90
2022-11-08T16:36:35.401Z,88.90
2022-11-08T16:39:03.483Z,87.90
2022-11-08T16:41:30.137Z,87.70
2022-11-08T16:43:57.740Z,88.20
2022-11-08T16:46:24.620Z,88.90
2022-11-08T16:48:59.050Z,89.50
2022-11-08T16:51:25.827Z,89.60
2022-11-08T16:53:53.355Z,89.60
2022-11-08T16:56:20.216Z,89.60
2022-11-08T16:58:46.965Z,89.70
2022-11-08T17:01:17.198Z,89.70
2022-11-08T17:03:43.808Z,89.80
2022-11-08T17:06:19.232Z,89.90
2022-11-08T17:08:46.754Z,89.90
2022-11-08T17:11:17.623Z,89.90
2022-11-08T17:13:44.240Z,89.80
2022-11-08T17:16:15.086Z,89.70
2022-11-08T17:18:41.949Z,89.60
2022-11-08T17:21:37.782Z,89.60
2022-11-08T17:23:57.320Z,89.60
2022-11-08T17:26:23.905Z,89.50
2022-11-08T17:28:54.175Z,89.60
2022-11-08T17:31:20.895Z,89.60
2022-11-08T17:33:47.639Z,89.70
2022-11-08T17:36:14.392Z,89.70
2022-11-08T17:38:42.279Z,89.80
2022-11-08T17:41:14.887Z,89.80
2022-11-08T17:43:42.601Z,89.80
2022-11-08T17:46:11.030Z,89.90
2022-11-08T17:48:38.095Z,89.90
2022-11-08T17:51:04.829Z,89.90
2022-11-08T17:53:32.814Z,90.00
2022-11-08T17:56:01.816Z,90.00
2022-11-08T17:58:28.700Z,90.00
2022-11-08T18:00:57.216Z,90.00
2022-11-08T18:03:25.681Z,90.10
2022-11-08T18:05:57.444Z,90.10
2022-11-08T18:08:27.039Z,90.10
2022-11-08T18:10:54.333Z,90.10
2022-11-08T18:13:21.798Z,90.10
2022-11-08T18:15:49.705Z,90.10
2022-11-08T18:18:17.080Z,90.10
2022-11-08T18:20:47.234Z,90.10
2022-11-08T18:23:13.887Z,90.20
2022-11-08T18:25:40.408Z,90.20
2022-11-08T18:28:06.941Z,90.20
2022-11-08T18:30:33.595Z,90.20
2022-11-08T18:33:00.189Z,90.20
2022-11-08T18:35:27.878Z,90.10
2022-11-08T18:37:55.506Z,90.10
2022-11-08T18:40:22.873Z,90.10
2022-11-08T18:42:49.501Z,90.10
2022-11-08T18:45:16.180Z,90.10
2022-11-08T18:47:42.776Z,90.10
2022-11-08T18:50:09.719Z,90.10
2022-11-08T18:52:36.891Z,90.10
2022-11-08T18:55:04.931Z,90.10
2022-11-08T18:57:31.478Z,90.10
2022-11-08T19:00:01.040Z,90.00
2022-11-08T19:02:28.146Z,90.10
2022-11-08T19:04:54.823Z,90.00
2022-11-08T19:07:21.617Z,90.00
2022-11-08T19:09:48.224Z,90.00
2022-11-08T19:12:14.843Z,90.00
2022-11-08T19:14:41.579Z,89.90
2022-11-08T19:17:08.699Z,90.00
2022-11-08T19:19:36.924Z,90.10
2022-11-08T19:22:04.183Z,90.00
2022-11-08T19:24:30.931Z,90.00
2022-11-08T19:26:57.497Z,90.00
2022-11-08T19:29:24.061Z,90.00
2022-11-08T19:31:50.583Z,90.00
2022-11-08T19:34:17.165Z,90.00
2022-11-08T19:36:43.784Z,90.00
2022-11-08T19:39:11.945Z,90.00
2022-11-08T19:41:39.523Z,90.00
2022-11-08T19:44:07.186Z,90.00
2022-11-08T19:46:35.345Z,90.00
2022-11-08T19:49:03.703Z,90.00
2022-11-08T19:51:32.663Z,90.10
2022-11-08T19:54:02.569Z,90.10
2022-11-08T19:56:57.848Z,90.10
2022-11-08T19:59:17.212Z,90.30
2022-11-08T20:01:43.913Z,90.10
2022-11-08T20:04:12.514Z,90.10
2022-11-08T20:06:39.318Z,90.10
2022-11-08T20:09:06.747Z,90.10
2022-11-08T20:11:36.398Z,90.10
2022-11-08T20:14:04.460Z,90.10
2022-11-08T20:16:37.928Z,90.10
2022-11-08T20:19:10.280Z,90.10
2022-11-08T20:21:40.502Z,90.10
2022-11-08T20:24:07.900Z,90.20
2022-11-08T20:26:34.784Z,90.20
2022-11-08T20:29:01.316Z,90.10
2022-11-08T20:31:28.465Z,90.20
2022-11-08T20:33:55.291Z,90.20
2022-11-08T20:36:23.900Z,90.20
2022-11-08T20:38:54.514Z,90.20
2022-11-08T20:41:21.098Z,90.20
2022-11-08T20:43:47.704Z,90.30
2022-11-08T20:46:16.968Z,90.30
2022-11-08T20:48:44.485Z,90.30
2022-11-08T20:51:17.086Z,90.20
2022-11-08T20:53:44.405Z,90.30
2022-11-08T20:56:14.535Z,90.30
2022-11-08T20:58:42.875Z,90.20
2022-11-08T21:01:13.213Z,90.20
2022-11-08T21:03:40.695Z,90.20
2022-11-08T21:06:09.914Z,90.20
2022-11-08T21:11:24.620Z,90.20
2022-11-08T21:13:51.355Z,90.20
2022-11-08T21:16:47.363Z,90.20
2022-11-08T21:19:05.485Z,90.20
2022-11-08T21:21:33.043Z,90.10
2022-11-08T21:23:59.690Z,90.10
2022-11-08T21:26:26.443Z,90.10
2022-11-08T21:28:54.104Z,90.10
2022-11-08T21:31:20.922Z,90.10
2022-11-08T21:33:47.789Z,90.10
2022-11-08T21:36:14.430Z,90.10
2022-11-08T21:38:41.106Z,90.10
2022-11-08T21:41:10.101Z,90.10
2022-11-08T21:43:41.058Z,90.10
2022-11-08T21:46:25.318Z,90.10
2022-11-08T21:49:01.813Z,90.10
2022-11-08T21:51:29.474Z,90.40
2022-11-08T21:53:58.803Z,90.10
2022-11-08T21:56:29.403Z,90.10
2022-11-08T21:58:56.132Z,90.20
2022-11-08T22:01:27.194Z,90.20
2022-11-08T22:03:55.407Z,90.20
2022-11-08T22:06:24.491Z,90.20
2022-11-08T22:08:51.340Z,90.30
2022-11-08T22:11:22.027Z,90.30
2022-11-08T22:13:48.677Z,90.40
2022-11-08T22:16:15.345Z,90.40
2022-11-08T22:19:03.537Z,90.40
2022-11-08T22:21:37.736Z,90.40
2022-11-08T22:24:04.952Z,90.40
2022-11-08T22:26:31.588Z,90.40
2022-11-08T22:28:58.269Z,90.40
2022-11-08T22:31:24.968Z,90.70
2022-11-08T22:33:54.690Z,90.50
2022-11-08T22:36:21.284Z,90.50
2022-11-08T22:38:48.143Z,90.50
2022-11-08T22:41:19.427Z,90.50
2022-11-08T22:43:46.547Z,90.50
2022-11-08T22:46:13.751Z,90.50
2022-11-08T22:48:41.034Z,90.60
2022-11-08T22:51:08.241Z,90.60
2022-11-08T22:53:35.606Z,90.60
2022-11-08T22:56:05.734Z,90.50
2022-11-08T22:58:36.969Z,90.50
2022-11-08T23:01:03.746Z,90.50
2022-11-08T23:03:30.352Z,90.50
2022-11-08T23:05:57.436Z,90.60
2022-11-08T23:08:25.993Z,90.60
2022-11-08T23:11:11.649Z,90.50
2022-11-08T23:13:57.047Z,90.60
2022-11-08T23:16:37.348Z,90.60
2022-11-08T23:19:25.569Z,90.50
2022-11-08T23:22:11.927Z,90.80
2022-11-08T23:24:39.226Z,90.50
2022-11-08T23:27:25.715Z,90.50
2022-11-08T23:30:11.144Z,90.50
2022-11-08T23:32:43.280Z,90.50
2022-11-08T23:35:11.040Z,90.40
2022-11-08T23:37:38.339Z,90.50
2022-11-08T23:40:25.274Z,90.50
2022-11-08T23:43:23.293Z,90.40
2022-11-08T23:45:50.364Z,90.40
2022-11-08T23:48:17.376Z,90.40
2022-11-08T23:50:48.868Z,90.40
2022-11-08T23:53:17.726Z,90.40
2022-11-08T23:55:44.653Z,90.40
2022-11-08T23:58:13.090Z,90.40
